createdAt,value
2023-04-16T00:02:13.003Z,8.70
2023-04-16T00:07:14.964Z,8.68
2023-04-16T00:12:17.127Z,8.67
2023-04-16T00:17:19.177Z,8.67
2023-04-16T00:22:21.024Z,8.66
2023-04-16T00:27:22.923Z,8.64
2023-04-16T00:32:24.955Z,8.63
2023-04-16T00:37:26.845Z,8.62
2023-04-16T00:42:28.839Z,8.63
2023-04-16T00:47:31.494Z,8.62
2023-04-16T00:52:33.555Z,8.62
2023-04-16T00:57:35.761Z,8.63
2023-04-16T01:02:37.721Z,8.62
2023-04-16T01:07:39.672Z,8.63
2023-04-16T01:12:41.512Z,8.63
2023-04-16T01:17:46.359Z,8.64
2023-04-16T01:22:48.254Z,8.65
2023-04-16T01:27:51.091Z,8.63
2023-04-16T01:32:53.026Z,8.63
2023-04-16T01:37:55.194Z,8.62
2023-04-16T01:42:57.028Z,8.63
2023-04-16T01:47:59.012Z,8.63
2023-04-16T01:53:02.343Z,8.62
2023-04-16T01:58:04.263Z,8.64
2023-04-16T02:03:06.367Z,8.64
2023-04-16T02:08:08.205Z,8.63
2023-04-16T02:13:10.058Z,8.63
2023-04-16T02:18:11.961Z,8.62
2023-04-16T02:23:15.309Z,8.62
2023-04-16T02:28:17.766Z,8.58
2023-04-16T02:33:20.848Z,8.60
2023-04-16T02:38:22.700Z,8.62
2023-04-16T02:43:24.708Z,8.59
2023-04-16T02:48:26.611Z,8.58
2023-04-16T02:53:28.455Z,8.59
2023-04-16T02:58:30.470Z,8.59
2023-04-16T03:03:32.329Z,8.58
2023-04-16T03:08:34.177Z,8.58
2023-04-16T03:13:36.486Z,8.56
2023-04-16T03:18:38.328Z,8.56
2023-04-16T03:23:40.230Z,8.57
2023-04-16T03:28:42.181Z,8.53
2023-04-16T03:33:44.056Z,8.53
2023-04-16T03:38:46.063Z,8.54
2023-04-16T03:43:47.900Z,8.52
2023-04-16T03:48:49.710Z,8.56
2023-04-16T03:53:51.841Z,8.56
2023-04-16T03:58:53.710Z,8.54
2023-04-16T04:03:55.666Z,8.53
2023-04-16T04:08:57.783Z,8.53
2023-04-16T04:13:59.876Z,8.52
2023-04-16T04:19:02.200Z,8.53
2023-04-16T04:24:04.164Z,8.53
2023-04-16T04:29:06.437Z,8.52
2023-04-16T04:34:08.200Z,8.53
2023-04-16T04:39:10.175Z,8.54
2023-04-16T04:44:12.147Z,8.57
2023-04-16T04:49:14.017Z,8.57
2023-04-16T04:54:15.932Z,8.58
2023-04-16T04:59:17.768Z,8.58
2023-04-16T05:04:19.784Z,8.61
2023-04-16T05:09:21.622Z,8.60
2023-04-16T05:14:23.594Z,8.59
2023-04-16T05:19:25.663Z,8.58
2023-04-16T05:24:27.553Z,8.58
2023-04-16T05:29:29.407Z,8.60
2023-04-16T05:34:31.362Z,8.59
2023-04-16T05:39:33.271Z,8.61
2023-04-16T05:44:35.173Z,8.63
2023-04-16T05:49:40.279Z,8.62
2023-04-16T05:54:42.350Z,8.59
2023-04-16T05:59:44.216Z,8.62
2023-04-16T06:04:46.552Z,8.63
2023-04-16T06:09:48.469Z,8.67
2023-04-16T06:14:50.409Z,8.69
2023-04-16T06:19:52.240Z,8.69
2023-04-16T06:24:54.301Z,8.69
2023-04-16T06:29:57.680Z,8.71
2023-04-16T06:34:59.689Z,8.70
2023-04-16T06:40:02.179Z,8.72
2023-04-16T06:45:04.569Z,8.76
2023-04-16T06:50:07.464Z,8.76
2023-04-16T06:55:10.217Z,8.81
2023-04-16T07:00:12.624Z,8.86
2023-04-16T07:05:14.561Z,8.93
2023-04-16T07:10:16.549Z,9.02
2023-04-16T07:15:18.479Z,9.08
2023-04-16T07:25:41.184Z,9.21
2023-04-16T07:30:49.655Z,9.27
2023-04-16T07:35:51.838Z,9.34
2023-04-16T07:40:54.033Z,9.36
2023-04-16T07:45:56.780Z,9.38
2023-04-16T07:51:02.813Z,9.42
2023-04-16T07:56:05.580Z,9.46
2023-04-16T08:01:08.615Z,9.52
2023-04-16T08:06:11.417Z,9.58
2023-04-16T08:11:15.726Z,9.65
2023-04-16T08:16:17.802Z,9.69
2023-04-16T08:21:20.177Z,9.75
2023-04-16T08:26:22.823Z,9.77
2023-04-16T08:31:24.934Z,9.82
2023-04-16T08:36:27.228Z,9.88
2023-04-16T08:41:32.985Z,9.94
2023-04-16T08:46:38.962Z,10.07
2023-04-16T08:51:46.302Z,10.14
2023-04-16T08:56:50.242Z,10.22
2023-04-16T09:01:54.147Z,10.33
2023-04-16T09:07:01.454Z,10.40
2023-04-16T09:12:04.147Z,10.41
2023-04-16T09:17:07.210Z,10.50
2023-04-16T09:22:09.237Z,10.53
2023-04-16T09:27:13.647Z,10.61
2023-04-16T09:32:16.062Z,10.70
2023-04-16T09:37:18.770Z,10.76
2023-04-16T09:42:29.305Z,10.84
2023-04-16T09:47:45.432Z,10.87
2023-04-16T09:52:54.380Z,10.91
2023-04-16T09:58:01.394Z,10.97
2023-04-16T10:03:06.065Z,11.00
2023-04-16T10:08:15.643Z,11.04
2023-04-16T10:13:19.486Z,12.28
2023-04-16T10:18:22.558Z,13.70
2023-04-16T10:23:24.651Z,14.82
2023-04-16T10:28:27.445Z,15.82
2023-04-16T10:33:32.323Z,16.12
2023-04-16T10:38:35.705Z,16.56
2023-04-16T10:43:47.113Z,16.58
2023-04-16T10:48:54.061Z,15.11
2023-04-16T10:54:20.773Z,14.03
2023-04-16T10:59:28.169Z,13.63
2023-04-16T11:04:45.762Z,13.35
2023-04-16T11:10:07.561Z,13.31
2023-04-16T11:15:11.672Z,13.20
2023-04-16T11:20:25.132Z,12.84
2023-04-16T11:25:31.923Z,12.87
2023-04-16T11:36:07.832Z,12.85
2023-04-16T11:41:36.686Z,12.86
2023-04-16T11:46:44.562Z,13.02
2023-04-16T11:57:41.231Z,13.00
2023-04-16T12:03:01.107Z,13.11
2023-04-16T12:08:11.621Z,13.63
2023-04-16T12:13:15.985Z,19.06
2023-04-16T12:18:19.651Z,21.43
2023-04-16T12:23:30.316Z,23.12
2023-04-16T12:28:34.565Z,24.85
2023-04-16T12:33:37.280Z,24.46
2023-04-16T12:38:39.484Z,20.89
2023-04-16T12:43:41.764Z,21.31
2023-04-16T12:48:43.993Z,23.07
2023-04-16T12:53:46.223Z,26.49
2023-04-16T12:58:52.348Z,27.92
2023-04-16T13:03:56.950Z,28.86
2023-04-16T13:08:59.640Z,29.91
2023-04-16T13:14:01.945Z,30.73
2023-04-16T13:19:04.269Z,31.47
2023-04-16T13:24:07.016Z,32.19
2023-04-16T13:29:09.925Z,32.95
2023-04-16T13:34:12.312Z,33.64
2023-04-16T13:39:16.062Z,31.66
2023-04-16T13:44:18.800Z,29.41
2023-04-16T13:49:21.172Z,28.14
2023-04-16T13:54:23.529Z,27.12
2023-04-16T13:59:26.834Z,26.42
2023-04-16T14:04:29.292Z,25.85
2023-04-16T14:09:32.013Z,25.25
2023-04-16T14:14:34.417Z,24.72
2023-04-16T14:19:36.824Z,24.26
2023-04-16T14:24:38.899Z,23.78
2023-04-16T14:29:41.865Z,23.35
2023-04-16T14:34:44.021Z,22.98
2023-04-16T14:39:46.187Z,22.58
2023-04-16T14:44:50.789Z,22.19
2023-04-16T14:49:54.182Z,21.83
2023-04-16T14:54:56.605Z,21.53
2023-04-16T15:00:16.146Z,21.21
2023-04-16T15:05:18.865Z,20.94
2023-04-16T15:10:21.874Z,20.63
2023-04-16T15:15:24.031Z,20.36
2023-04-16T15:20:26.467Z,20.04
2023-04-16T15:25:29.038Z,19.78
2023-04-16T15:30:35.408Z,19.54
2023-04-16T15:35:42.096Z,17.08
2023-04-16T15:40:51.229Z,16.33
2023-04-16T15:45:54.211Z,16.37
2023-04-16T15:50:57.406Z,17.33
2023-04-16T15:56:10.019Z,17.47
2023-04-16T16:01:17.108Z,17.39
2023-04-16T16:06:24.468Z,17.28
2023-04-16T16:11:28.902Z,17.15
2023-04-16T16:16:34.093Z,17.01
2023-04-16T16:21:37.063Z,16.88
2023-04-16T16:26:39.449Z,16.72
2023-04-16T16:31:42.060Z,16.55
2023-04-16T16:36:48.304Z,16.42
2023-04-16T16:41:53.284Z,16.22
2023-04-16T16:46:59.298Z,16.03
2023-04-16T16:52:02.447Z,14.65
2023-04-16T16:57:11.700Z,14.01
2023-04-16T17:02:17.111Z,13.54
2023-04-16T17:07:20.513Z,13.31
2023-04-16T17:12:29.329Z,13.04
2023-04-16T17:17:33.698Z,12.75
2023-04-16T17:22:41.021Z,13.52
2023-04-16T17:27:53.597Z,13.63
2023-04-16T17:32:58.168Z,13.59
2023-04-16T17:38:06.292Z,13.51
2023-04-16T17:44:11.591Z,13.39
2023-04-16T17:49:15.046Z,13.29
2023-04-16T17:54:17.764Z,13.18
2023-04-16T17:59:20.895Z,13.03
2023-04-16T18:04:23.790Z,12.90
2023-04-16T18:09:27.290Z,12.78
2023-04-16T18:14:31.250Z,12.64
2023-04-16T18:19:34.544Z,12.51
2023-04-16T18:24:37.539Z,12.32
2023-04-16T18:29:40.671Z,12.19
2023-04-16T18:34:43.790Z,12.08
2023-04-16T18:39:47.079Z,11.91
2023-04-16T18:44:59.347Z,11.78
2023-04-16T18:50:08.554Z,11.65
2023-04-16T18:55:12.380Z,11.50
2023-04-16T19:00:17.654Z,11.35
2023-04-16T19:05:26.186Z,11.23
2023-04-16T19:10:31.325Z,11.10
2023-04-16T19:15:39.335Z,10.95
2023-04-16T19:20:55.342Z,10.80
2023-04-16T19:26:04.118Z,10.65
2023-04-16T19:31:08.803Z,10.53
2023-04-16T19:36:11.666Z,10.36
2023-04-16T19:41:14.435Z,10.25
2023-04-16T19:46:18.565Z,10.13
2023-04-16T19:51:23.571Z,9.99
2023-04-16T19:56:28.198Z,9.88
2023-04-16T20:01:37.609Z,9.76
2023-04-16T20:06:57.042Z,9.63
2023-04-16T20:12:08.100Z,9.49
2023-04-16T20:17:10.908Z,9.37
2023-04-16T20:22:15.958Z,9.25
2023-04-16T20:27:21.075Z,9.13
2023-04-16T20:33:01.576Z,9.02
2023-04-16T20:38:05.687Z,8.88
2023-04-16T20:43:10.537Z,8.79
2023-04-16T20:48:17.482Z,8.70
2023-04-16T20:53:21.202Z,8.58
2023-04-16T20:58:24.190Z,8.46
2023-04-16T21:03:26.907Z,8.39
2023-04-16T21:08:29.681Z,8.29
2023-04-16T21:13:32.138Z,8.17
2023-04-16T21:18:35.628Z,8.10
2023-04-16T21:23:38.284Z,7.98
2023-04-16T21:28:40.705Z,7.88
2023-04-16T21:33:42.787Z,7.80
2023-04-16T21:38:44.839Z,7.71
2023-04-16T21:43:46.863Z,7.62
2023-04-16T21:48:50.229Z,7.53
2023-04-16T21:53:52.318Z,7.44
2023-04-16T21:58:54.727Z,7.35
2023-04-16T22:03:56.651Z,7.29
2023-04-16T22:08:59.269Z,7.19
2023-04-16T22:14:01.324Z,7.11
2023-04-16T22:19:03.474Z,7.00
2023-04-16T22:24:06.017Z,6.94
2023-04-16T22:29:08.012Z,6.86
2023-04-16T22:34:10.246Z,6.79
2023-04-16T22:39:12.380Z,6.71
2023-04-16T22:44:15.230Z,6.62
2023-04-16T22:49:17.376Z,6.56
2023-04-16T22:54:19.395Z,6.50
2023-04-16T22:59:21.685Z,6.46
2023-04-16T23:04:24.318Z,6.39
2023-04-16T23:09:26.364Z,6.30
2023-04-16T23:14:29.354Z,6.24
2023-04-16T23:19:31.989Z,6.17
2023-04-16T23:24:34.049Z,6.10
2023-04-16T23:29:36.089Z,6.06
2023-04-16T23:34:38.175Z,5.99
2023-04-16T23:39:40.342Z,5.93
2023-04-16T23:44:42.319Z,5.87
2023-04-16T23:49:44.260Z,5.81
2023-04-16T23:54:46.405Z,5.78
2023-04-16T23:59:48.367Z,5.70
